Time;durP1;ratioP1;P1;durP2;ratioP2;P2;SDS_P1;SDS_P2;PMS_P1;PMS_P2;Temp;Humidity;BMP_temperature;BMP_pressure;BME280_temperature;BME280_humidity;BME280_pressure;Samples;Min_cycle;Max_cycle;Signal;HPM_P1;HPM_P2
2022/04/28 00:01:44;;;;;;;25.77;17.05;;;5.30;99.90;;;;;;5120693;27;20041;-68
2022/04/28 00:04:10;;;;;;;28.30;15.52;;;5.30;99.90;;;;;;5121621;28;20040;-67
2022/04/28 00:06:35;;;;;;;;;;;5.30;99.90;;;;;;5122617;28;20035;-68
2022/04/28 00:09:01;;;;;;;24.60;16.05;;;5.30;99.90;;;;;;5123337;27;19976;-69
2022/04/28 00:11:27;;;;;;;29.77;17.15;;;5.30;99.90;;;;;;5121881;27;20479;-67
2022/04/28 00:13:53;;;;;;;28.67;16.33;;;5.30;99.90;;;;;;5118615;28;20573;-67
2022/04/28 00:16:18;;;;;;;;;;;5.30;99.90;;;;;;5123316;28;20053;-68
2022/04/28 00:18:44;;;;;;;26.83;15.43;;;5.20;99.90;;;;;;5109826;27;20054;-68
2022/04/28 00:21:09;;;;;;;29.40;17.02;;;5.20;99.90;;;;;;5109160;28;20040;-67
2022/04/28 00:23:35;;;;;;;;;;;5.20;99.90;;;;;;5108753;28;20032;-68
2022/04/28 00:26:03;;;;;;;33.58;17.63;;;5.20;99.90;;;;;;5108055;28;19920;-68
2022/04/28 00:28:28;;;;;;;30.27;16.77;;;5.10;99.90;;;;;;5108620;28;20092;-67
2022/04/28 00:30:59;;;;;;;28.35;16.02;;;5.10;99.90;;;;;;5107428;28;20454;-68
2022/04/28 00:33:32;;;;;;;34.22;15.88;;;5.10;99.90;;;;;;5108129;28;20035;-68
2022/04/28 00:36:00;;;;;;;25.25;16.70;;;5.10;99.90;;;;;;5108875;28;20079;-67
2022/04/28 00:38:26;;;;;;;29.40;16.98;;;5.00;99.90;;;;;;5109244;28;20035;-68
2022/04/28 00:40:51;;;;;;;26.92;16.55;;;5.00;99.90;;;;;;5107434;28;20122;-67
2022/04/28 00:43:23;;;;;;;;;;;4.90;99.90;;;;;;5109033;28;20112;-69
2022/04/28 00:45:50;;;;;;;30.90;16.83;;;4.90;99.90;;;;;;5088283;28;19932;-69
2022/04/28 00:51:03;;;;;;;36.50;18.83;;;4.90;99.90;;;;;;5089083;28;20036;-68
2022/04/28 00:53:30;;;;;;;28.73;17.38;;;4.90;99.90;;;;;;5106936;28;20107;-67
2022/04/28 00:56:00;;;;;;;28.15;16.13;;;4.90;99.90;;;;;;5108914;28;20047;-68
2022/04/28 00:58:26;;;;;;;32.88;18.27;;;4.80;99.90;;;;;;5108383;28;20086;-70
2022/04/28 01:00:55;;;;;;;30.98;18.90;;;4.80;99.90;;;;;;5107113;28;20040;-67
2022/04/28 01:03:22;;;;;;;29.90;18.08;;;4.80;99.90;;;;;;5106899;27;20047;-67
2022/04/28 01:05:48;;;;;;;24.90;16.35;;;4.80;99.90;;;;;;5107789;28;20290;-68
2022/04/28 01:08:15;;;;;;;27.35;16.75;;;4.70;99.90;;;;;;5107938;28;20527;-67
2022/04/28 01:10:40;;;;;;;28.58;16.92;;;4.70;99.90;;;;;;5107510;28;20071;-67
2022/04/28 01:13:06;;;;;;;29.80;17.75;;;4.70;99.90;;;;;;5107471;28;20094;-68
2022/04/28 01:15:49;;;;;;;29.27;16.83;;;4.70;99.90;;;;;;5107718;28;20048;-70
2022/04/28 01:18:16;;;;;;;31.13;18.08;;;4.70;99.90;;;;;;5107846;28;20051;-67
2022/04/28 01:20:43;;;;;;;29.30;16.63;;;4.70;99.90;;;;;;5107770;28;20040;-68
2022/04/28 01:23:09;;;;;;;25.58;15.52;;;4.70;99.90;;;;;;5106433;28;20793;-68
2022/04/28 01:25:35;;;;;;;30.05;16.20;;;4.70;99.90;;;;;;5107236;28;20138;-68
2022/04/28 01:28:01;;;;;;;30.27;17.77;;;4.70;99.90;;;;;;5108146;28;20134;-67
2022/04/28 01:30:28;;;;;;;25.95;16.48;;;4.70;99.90;;;;;;5104999;28;20036;-70
2022/04/28 01:32:57;;;;;;;34.97;17.95;;;4.60;99.90;;;;;;5106857;28;20063;-68
2022/04/28 01:35:23;;;;;;;25.02;16.63;;;4.60;99.90;;;;;;5107435;28;20599;-68
2022/04/28 01:37:48;;;;;;;34.38;18.83;;;4.60;99.90;;;;;;5106020;28;20166;-68
2022/04/28 01:40:14;;;;;;;31.20;15.48;;;4.60;99.90;;;;;;5105965;28;20044;-67
2022/04/28 01:42:45;;;;;;;28.23;17.73;;;4.60;99.90;;;;;;5106979;28;20080;-68
2022/04/28 01:45:11;;;;;;;29.38;18.55;;;4.60;99.90;;;;;;5107368;28;20480;-68
2022/04/28 01:47:39;;;;;;;34.22;18.17;;;4.50;99.90;;;;;;5105636;28;20039;-69
2022/04/28 01:50:05;;;;;;;25.88;16.35;;;4.50;99.90;;;;;;5107113;28;20035;-69
2022/04/28 01:55:15;;;;;;;28.80;17.75;;;4.40;99.90;;;;;;5106079;28;20039;-67
2022/04/28 01:57:41;;;;;;;30.55;17.23;;;4.40;99.90;;;;;;5106909;28;20103;-69
2022/04/28 02:00:07;;;;;;;;;;;4.40;99.90;;;;;;5106728;28;20031;-68
2022/04/28 02:02:34;;;;;;;27.60;16.02;;;4.40;99.90;;;;;;5103302;28;19922;-66
2022/04/28 02:05:01;;;;;;;37.25;17.55;;;4.40;99.90;;;;;;5105211;28;20039;-65
2022/04/28 02:07:28;;;;;;;34.67;18.02;;;4.40;99.90;;;;;;5104754;28;20456;-67
2022/04/28 02:09:53;;;;;;;30.15;17.63;;;4.40;99.90;;;;;;5106900;28;20050;-67
2022/04/28 02:12:19;;;;;;;46.95;19.67;;;4.30;99.90;;;;;;5106797;28;20023;-65
2022/04/28 02:14:46;;;;;;;32.85;18.17;;;4.30;99.90;;;;;;5106341;28;20039;-66
2022/04/28 02:17:15;;;;;;;27.02;16.70;;;4.30;99.90;;;;;;5106388;28;20146;-67
2022/04/28 02:19:41;;;;;;;31.77;18.65;;;4.20;99.90;;;;;;5106550;28;20840;-66
2022/04/28 02:22:06;;;;;;;31.73;18.42;;;4.20;99.90;;;;;;5105861;28;20122;-67
2022/04/28 02:24:32;;;;;;;31.92;19.00;;;4.20;99.90;;;;;;5106103;28;20106;-67
2022/04/28 02:26:57;;;;;;;33.90;19.30;;;4.20;99.90;;;;;;5106955;28;20046;-66
2022/04/28 02:29:23;;;;;;;32.20;17.75;;;4.20;99.90;;;;;;5106387;28;20032;-66
2022/04/28 02:31:49;;;;;;;33.95;19.15;;;4.20;99.90;;;;;;5105194;28;20134;-69
2022/04/28 02:34:14;;;;;;;33.05;18.55;;;4.20;99.90;;;;;;5106580;28;20044;-66
2022/04/28 02:36:40;;;;;;;30.05;17.63;;;4.20;99.90;;;;;;5105599;28;20035;-66
2022/04/28 02:39:06;;;;;;;33.17;18.95;;;4.20;99.90;;;;;;5104864;28;20043;-66
2022/04/28 02:41:31;;;;;;;27.00;16.73;;;4.20;99.90;;;;;;5106546;28;20036;-67
2022/04/28 02:43:57;;;;;;;;;;;4.20;99.90;;;;;;5106742;28;20724;-66
2022/04/28 02:46:23;;;;;;;30.25;17.15;;;4.20;99.90;;;;;;5105354;28;20777;-67
2022/04/28 02:48:49;;;;;;;30.17;17.60;;;4.10;99.90;;;;;;5106021;28;20150;-65
2022/04/28 02:51:15;;;;;;;32.42;18.13;;;4.10;99.90;;;;;;5105192;28;20069;-66
2022/04/28 02:53:41;;;;;;;30.95;17.90;;;4.20;99.90;;;;;;5105625;28;20047;-66
2022/04/28 02:56:07;;;;;;;30.77;18.10;;;4.10;99.90;;;;;;5106117;28;20070;-66
2022/04/28 02:58:37;;;;;;;;;;;4.10;99.90;;;;;;5106480;28;20067;-67
2022/04/28 03:01:03;;;;;;;25.95;16.25;;;4.10;99.90;;;;;;5104609;28;19924;-66
2022/04/28 03:03:28;;;;;;;31.95;17.50;;;4.00;99.90;;;;;;5106049;28;20035;-67
2022/04/28 03:11:23;;;;;;;32.03;17.83;;;3.90;99.90;;;;;;5105968;28;20043;-66
2022/04/28 03:13:50;;;;;;;33.70;18.08;;;3.90;99.90;;;;;;5089951;28;20762;-66
2022/04/28 03:16:16;;;;;;;30.08;17.70;;;3.90;99.90;;;;;;5091883;28;20059;-66
2022/04/28 03:18:44;;;;;;;31.05;17.27;;;3.90;99.90;;;;;;5104111;28;20050;-66
2022/04/28 03:21:11;;;;;;;28.48;18.15;;;3.90;99.90;;;;;;5105829;28;20592;-67
2022/04/28 03:23:37;;;;;;;32.53;19.08;;;4.00;99.90;;;;;;5106848;28;20047;-67
2022/04/28 03:26:03;;;;;;;37.40;20.42;;;4.00;99.90;;;;;;5105685;28;20269;-66
2022/04/28 03:28:35;;;;;;;34.72;19.25;;;4.10;99.90;;;;;;5086904;28;20051;-66
2022/04/28 03:31:05;;;;;;;30.70;18.80;;;4.20;99.90;;;;;;5098044;28;20042;-68
2022/04/28 03:33:32;;;;;;;31.50;18.08;;;4.30;99.90;;;;;;5104984;28;20122;-68
2022/04/28 03:35:58;;;;;;;38.03;21.42;;;4.40;99.90;;;;;;5105744;28;20055;-66
2022/04/28 03:38:23;;;;;;;31.05;18.45;;;4.40;99.90;;;;;;5105976;28;20072;-68
2022/04/28 03:40:49;;;;;;;33.08;18.38;;;4.50;99.90;;;;;;5105715;28;20075;-67
2022/04/28 03:43:15;;;;;;;26.17;16.83;;;4.40;99.90;;;;;;5105698;28;20637;-66
2022/04/28 03:45:41;;;;;;;27.50;16.33;;;4.40;99.90;;;;;;5105491;28;20400;-67
2022/04/28 03:48:10;;;;;;;29.60;17.27;;;4.30;99.90;;;;;;5104862;28;20047;-67
2022/04/28 03:50:39;;;;;;;29.38;17.17;;;4.30;99.90;;;;;;5105741;28;20051;-67
2022/04/28 03:53:05;;;;;;;33.35;17.20;;;4.30;99.90;;;;;;5106859;28;20047;-68
2022/04/28 03:55:31;;;;;;;31.35;17.70;;;4.30;99.90;;;;;;5109333;28;20035;-65
2022/04/28 03:57:57;;;;;;;27.00;16.38;;;4.20;99.90;;;;;;5109426;28;20049;-66
2022/04/28 04:00:23;;;;;;;28.45;17.42;;;4.20;99.90;;;;;;5108172;27;20046;-65
2022/04/28 04:02:49;;;;;;;30.95;17.50;;;4.30;99.90;;;;;;5099968;28;20406;-66
2022/04/28 04:05:16;;;;;;;30.77;17.80;;;4.20;99.90;;;;;;5089152;28;20047;-66
2022/04/28 04:07:43;;;;;;;29.80;17.75;;;4.20;99.90;;;;;;5101198;28;20101;-66
2022/04/28 04:10:13;;;;;;;28.42;17.25;;;4.20;99.90;;;;;;5108348;28;20047;-66
2022/04/28 04:12:39;;;;;;;29.05;17.88;;;4.20;99.90;;;;;;5109903;28;20067;-66
2022/04/28 04:15:06;;;;;;;34.45;16.88;;;4.10;99.90;;;;;;5108755;28;20067;-67
2022/04/28 04:17:40;;;;;;;29.55;17.13;;;4.10;99.90;;;;;;5108099;28;20046;-67
2022/04/28 04:20:07;;;;;;;31.38;16.80;;;4.10;99.90;;;;;;5110075;28;20122;-68
2022/04/28 04:22:32;;;;;;;29.10;16.75;;;4.10;99.90;;;;;;5109155;28;20047;-67
2022/04/28 04:24:58;;;;;;;33.90;17.70;;;4.10;99.90;;;;;;5108956;28;20127;-66
2022/04/28 04:27:24;;;;;;;32.63;17.75;;;4.10;99.90;;;;;;5108538;28;20039;-65
2022/04/28 04:29:50;;;;;;;31.10;17.38;;;4.10;99.90;;;;;;5109310;28;20111;-66
2022/04/28 04:32:18;;;;;;;30.25;17.73;;;4.10;99.90;;;;;;5108416;28;20458;-63
2022/04/28 04:34:45;;;;;;;24.50;15.70;;;4.10;99.90;;;;;;5109562;28;20584;-67
2022/04/28 04:37:11;;;;;;;25.27;15.77;;;4.20;99.90;;;;;;5108996;28;20076;-65
2022/04/28 04:39:37;;;;;;;29.30;16.50;;;4.30;99.90;;;;;;5107773;28;20065;-66
2022/04/28 04:42:03;;;;;;;26.55;16.35;;;4.40;99.90;;;;;;5108287;28;20773;-65
2022/04/28 04:44:29;;;;;;;27.08;15.75;;;4.40;99.90;;;;;;5106610;28;20643;-65
2022/04/28 04:46:55;;;;;;;24.05;15.20;;;4.50;99.90;;;;;;5105767;28;20054;-65
2022/04/28 04:49:20;;;;;;;;;;;4.70;99.90;;;;;;5109699;28;20057;-64
2022/04/28 04:51:46;;;;;;;22.73;13.80;;;5.00;99.90;;;;;;5109743;28;19946;-65
2022/04/28 04:54:12;;;;;;;22.92;14.23;;;5.00;99.90;;;;;;5108928;28;20054;-63
2022/04/28 04:56:38;;;;;;;27.00;15.63;;;5.00;99.90;;;;;;5110811;28;20043;-64
2022/04/28 04:59:03;;;;;;;19.00;12.43;;;5.30;99.90;;;;;;5109252;28;20468;-62
2022/04/28 05:01:29;;;;;;;;;;;6.00;99.90;;;;;;5107354;28;20126;-65
2022/04/28 05:03:55;;;;;;;24.58;12.60;;;6.50;99.90;;;;;;5107966;28;20533;-65
2022/04/28 05:06:20;;;;;;;;;;;7.20;99.90;;;;;;5108444;28;20453;-65
2022/04/28 05:08:46;;;;;;;21.50;11.68;;;7.70;99.90;;;;;;5108205;28;19959;-63
2022/04/28 05:11:11;;;;;;;;;;;8.20;99.90;;;;;;5108805;28;20560;-64
2022/04/28 05:13:37;;;;;;;20.90;12.10;;;8.60;99.90;;;;;;5104143;28;19920;-64
2022/04/28 05:16:02;;;;;;;;;;;9.20;99.90;;;;;;5108944;28;20098;-65
2022/04/28 05:18:28;;;;;;;20.63;11.98;;;9.50;99.90;;;;;;5108109;28;19915;-65
2022/04/28 05:20:54;;;;;;;;;;;9.30;99.90;;;;;;5108715;28;20051;-65
2022/04/28 05:23:20;;;;;;;18.00;10.50;;;9.30;99.90;;;;;;5106384;28;19925;-64
2022/04/28 05:25:46;;;;;;;20.17;12.85;;;9.40;99.90;;;;;;5103420;28;20117;-63
2022/04/28 05:28:11;;;;;;;;;;;9.30;99.90;;;;;;5107965;28;20039;-65
2022/04/28 05:30:37;;;;;;;18.42;11.65;;;9.40;99.90;;;;;;5106354;28;20578;-64
2022/04/28 05:33:03;;;;;;;;;;;9.90;99.90;;;;;;5107698;28;20032;-65
2022/04/28 05:35:28;;;;;;;17.95;10.68;;;10.40;99.90;;;;;;5107484;28;19916;-65
2022/04/28 05:37:54;;;;;;;;;;;11.10;99.90;;;;;;5107989;27;20062;-64
2022/04/28 05:40:20;;;;;;;14.25;10.18;;;11.00;99.90;;;;;;5108180;28;19975;-65
2022/04/28 05:45:42;;;;;;;16.80;11.00;;;12.40;99.20;;;;;;5105712;28;19924;-64
2022/04/28 05:48:09;;;;;;;24.40;10.30;;;12.60;98.20;;;;;;5106854;28;20062;-65
2022/04/28 05:50:39;;;;;;;14.35;10.73;;;12.40;98.70;;;;;;5107245;28;20050;-65
2022/04/28 05:53:05;;;;;;;17.17;10.20;;;12.50;98.40;;;;;;5103485;28;20032;-64
2022/04/28 05:55:31;;;;;;;17.35;10.13;;;12.70;98.60;;;;;;5099648;28;20078;-64
2022/04/28 05:57:58;;;;;;;;;;;12.70;98.30;;;;;;5099727;28;20055;-64
2022/04/28 06:00:28;;;;;;;15.23;10.52;;;12.30;98.30;;;;;;5099006;28;19976;-64
2022/04/28 06:02:54;;;;;;;16.95;11.48;;;12.70;98.80;;;;;;5095145;28;20112;-64
2022/04/28 06:05:20;;;;;;;16.55;11.75;;;12.80;98.00;;;;;;5097218;28;20032;-64
2022/04/28 06:07:46;;;;;;;;;;;12.30;98.30;;;;;;5096035;28;20549;-66
2022/04/28 06:10:26;;;;;;;16.67;11.85;;;12.50;99.00;;;;;;5092149;28;20279;-65
2022/04/28 06:12:55;;;;;;;16.77;10.45;;;13.10;98.10;;;;;;5103450;28;20084;-63
2022/04/28 06:15:25;;;;;;;20.45;9.98;;;13.50;96.50;;;;;;5105255;28;20039;-66
2022/04/28 06:17:51;;;;;;;16.25;9.98;;;14.10;96.60;;;;;;5105261;28;20692;-66
2022/04/28 06:20:17;;;;;;;;;;;13.90;95.40;;;;;;5107305;28;20063;-64
2022/04/28 06:22:44;;;;;;;17.85;10.50;;;13.50;96.80;;;;;;5107288;28;19919;-66
2022/04/28 06:25:10;;;;;;;16.60;11.57;;;13.00;98.20;;;;;;5107296;28;20036;-66
2022/04/28 06:27:36;;;;;;;;;;;12.70;98.90;;;;;;5107392;28;20127;-65
2022/04/28 06:30:02;;;;;;;12.73;8.88;;;13.20;99.10;;;;;;5106646;28;19915;-65
2022/04/28 06:32:28;;;;;;;15.93;9.27;;;14.10;98.00;;;;;;5105733;28;20705;-65
2022/04/28 06:34:53;;;;;;;;;;;15.00;96.30;;;;;;5101333;28;20032;-66
2022/04/28 06:37:19;;;;;;;19.35;9.38;;;15.20;93.70;;;;;;5104118;28;19916;-66
2022/04/28 06:39:45;;;;;;;14.75;9.95;;;16.20;92.60;;;;;;5104386;28;20035;-66
2022/04/28 06:42:10;;;;;;;17.30;9.18;;;17.00;91.50;;;;;;5104834;28;20035;-65
2022/04/28 06:44:36;;;;;;;14.15;9.57;;;16.80;88.20;;;;;;5103922;28;20043;-66
2022/04/28 06:47:05;;;;;;;11.43;9.40;;;17.00;88.40;;;;;;5104066;28;20035;-66
2022/04/28 06:49:32;;;;;;;17.88;9.43;;;17.20;87.60;;;;;;5103308;28;20070;-65
2022/04/28 06:51:58;;;;;;;15.27;9.65;;;16.50;89.90;;;;;;5104249;28;20039;-65
2022/04/28 06:54:23;;;;;;;15.10;9.40;;;15.60;91.20;;;;;;5105078;28;20043;-66
2022/04/28 06:56:49;;;;;;;14.63;8.82;;;15.90;92.60;;;;;;5105316;28;20135;-65
2022/04/28 06:59:15;;;;;;;11.63;7.72;;;16.40;91.30;;;;;;5106113;28;20036;-67
2022/04/28 07:01:40;;;;;;;11.30;7.70;;;17.00;88.40;;;;;;5104772;28;20066;-66
2022/04/28 07:04:06;;;;;;;11.68;7.65;;;17.60;88.00;;;;;;5085922;28;20492;-65
2022/04/28 07:06:32;;;;;;;14.73;9.13;;;17.60;84.50;;;;;;5105220;28;20047;-66
2022/04/28 07:08:57;;;;;;;15.40;8.93;;;17.40;84.00;;;;;;5105940;28;20755;-64
2022/04/28 07:11:26;;;;;;;13.07;9.07;;;17.10;85.40;;;;;;5106156;28;20122;-64
2022/04/28 07:13:52;;;;;;;13.23;8.38;;;17.10;83.80;;;;;;5105360;28;20043;-64
2022/04/28 07:16:18;;;;;;;13.75;8.70;;;16.90;82.30;;;;;;5106049;28;21008;-64
2022/04/28 07:18:44;;;;;;;14.75;9.02;;;17.20;83.30;;;;;;5105746;28;20114;-64
2022/04/28 07:21:09;;;;;;;21.02;9.40;;;16.80;83.10;;;;;;5105568;28;20045;-65
2022/04/28 07:23:35;;;;;;;16.17;10.48;;;16.40;85.10;;;;;;5098728;28;20089;-64
2022/04/28 07:26:01;;;;;;;14.35;9.77;;;16.10;86.30;;;;;;5103143;28;20742;-65
2022/04/28 07:28:26;;;;;;;21.30;12.10;;;15.60;86.50;;;;;;5108632;28;20051;-66
2022/04/28 07:30:52;;;;;;;27.02;13.13;;;15.20;88.40;;;;;;5108532;28;20115;-64
2022/04/28 07:33:17;;;;;;;16.83;10.85;;;14.50;90.70;;;;;;5109791;28;20088;-65
2022/04/28 07:35:43;;;;;;;19.05;10.93;;;14.30;90.80;;;;;;5109721;28;20058;-65
2022/04/28 07:38:08;;;;;;;17.67;10.10;;;14.70;91.90;;;;;;5109603;28;20088;-64
2022/04/28 07:40:36;;;;;;;19.08;10.70;;;15.60;91.20;;;;;;5109763;28;20095;-64
2022/04/28 07:43:02;;;;;;;18.45;9.98;;;15.90;88.90;;;;;;5109647;28;20131;-66
2022/04/28 07:45:28;;;;;;;17.02;11.63;;;16.80;86.60;;;;;;5109831;28;20039;-65
2022/04/28 07:47:54;;;;;;;16.75;10.57;;;17.00;84.30;;;;;;5110084;28;20039;-65
2022/04/28 07:50:20;;;;;;;20.15;11.57;;;16.40;87.20;;;;;;5110537;28;20499;-65
2022/04/28 07:52:47;;;;;;;17.33;10.73;;;15.90;87.90;;;;;;5110516;28;20043;-65
2022/04/28 07:55:13;;;;;;;18.15;11.27;;;16.70;85.60;;;;;;5110118;27;20042;-65
2022/04/28 07:57:39;;;;;;;16.00;11.40;;;17.40;82.20;;;;;;5111035;28;20139;-65
2022/04/28 08:00:07;;;;;;;15.38;10.25;;;18.00;79.10;;;;;;5110186;28;20051;-65
2022/04/28 08:02:36;;;;;;;14.40;10.02;;;18.40;79.30;;;;;;5104732;28;20108;-66
2022/04/28 08:05:02;;;;;;;13.75;9.13;;;19.00;75.00;;;;;;5109404;28;20035;-65
2022/04/28 08:07:28;;;;;;;14.88;9.52;;;20.20;73.60;;;;;;5108973;28;20059;-63
2022/04/28 08:09:54;;;;;;;17.65;9.85;;;20.70;69.20;;;;;;5109591;28;20043;-63
2022/04/28 08:12:19;;;;;;;15.00;10.07;;;20.80;66.90;;;;;;5105466;28;20064;-66
2022/04/28 08:14:45;;;;;;;17.13;9.75;;;20.60;65.20;;;;;;5089528;28;20158;-66
2022/04/28 08:17:11;;;;;;;21.98;11.00;;;20.80;63.80;;;;;;5105465;28;20407;-66
2022/04/28 08:19:37;;;;;;;18.17;9.32;;;21.10;63.70;;;;;;5108925;28;20040;-66
2022/04/28 08:22:03;;;;;;;15.73;10.25;;;21.40;65.00;;;;;;5109515;28;20036;-64
2022/04/28 08:24:28;;;;;;;12.25;8.70;;;21.20;62.20;;;;;;5108892;28;20047;-66
2022/04/28 08:26:54;;;;;;;13.43;9.57;;;21.70;63.80;;;;;;5109493;28;20035;-66
2022/04/28 08:29:21;;;;;;;16.40;10.82;;;21.90;61.50;;;;;;5109535;28;20040;-66
2022/04/28 08:31:47;;;;;;;14.90;9.23;;;21.50;60.70;;;;;;5107803;28;20036;-65
2022/04/28 08:34:14;;;;;;;15.00;9.20;;;21.20;61.10;;;;;;5111811;28;20036;-64
2022/04/28 08:36:41;;;;;;;17.98;11.43;;;21.00;62.40;;;;;;5108271;28;20043;-65
2022/04/28 08:39:07;;;;;;;19.25;12.75;;;20.60;61.10;;;;;;5109701;28;20093;-64
2022/04/28 08:41:37;;;;;;;15.05;11.50;;;19.90;62.00;;;;;;5108755;28;20050;-64
2022/04/28 08:44:05;;;;;;;18.20;12.25;;;19.30;65.70;;;;;;5109373;28;20044;-66
2022/04/28 08:49:22;;;;;;;21.83;13.27;;;17.50;71.00;;;;;;5108639;28;20046;-63
2022/04/28 08:51:56;;;;;;;19.83;12.75;;;16.60;74.40;;;;;;5108990;28;20040;-64
2022/04/28 08:54:24;;;;;;;21.92;13.55;;;15.80;78.00;;;;;;5100314;28;20079;-64
2022/04/28 08:56:51;;;;;;;19.00;12.57;;;15.70;80.60;;;;;;5108110;28;20043;-64
2022/04/28 08:59:18;;;;;;;21.23;13.27;;;15.50;84.70;;;;;;5108522;27;20036;-63
2022/04/28 09:01:44;;;;;;;22.10;14.15;;;15.90;80.30;;;;;;5107338;28;20040;-65
2022/04/28 09:04:10;;;;;;;;;;;16.00;85.00;;;;;;5108839;28;20178;-65
2022/04/28 09:06:38;;;;;;;19.88;12.75;;;15.70;79.50;;;;;;5108069;28;20258;-65
2022/04/28 09:09:10;;;;;;;26.67;14.55;;;15.50;87.60;;;;;;5108541;28;20047;-65
2022/04/28 09:11:39;;;;;;;22.10;12.75;;;15.50;81.80;;;;;;5108146;28;20123;-65
2022/04/28 09:14:09;;;;;;;21.02;13.07;;;15.60;83.90;;;;;;5089474;28;20036;-65
2022/04/28 09:16:37;;;;;;;26.38;13.93;;;15.50;84.70;;;;;;5089987;28;20131;-64
2022/04/28 09:19:03;;;;;;;26.17;13.20;;;15.40;84.50;;;;;;5108013;28;20047;-64
2022/04/28 09:21:32;;;;;;;;;;;15.50;82.40;;;;;;5108611;28;20990;-65
2022/04/28 09:23:58;;;;;;;24.10;13.20;;;15.80;83.20;;;;;;5111747;28;19928;-64
2022/04/28 09:26:24;;;;;;;;;;;15.60;81.30;;;;;;5109874;28;20051;-65
2022/04/28 09:28:51;;;;;;;20.02;13.35;;;15.50;81.80;;;;;;5108313;28;19920;-64
2022/04/28 09:31:18;;;;;;;22.25;13.77;;;15.30;83.50;;;;;;5106210;27;20044;-65
2022/04/28 09:33:50;;;;;;;21.48;13.10;;;15.50;84.50;;;;;;5105702;28;20054;-65
2022/04/28 09:36:17;;;;;;;20.23;13.25;;;15.70;85.20;;;;;;5107169;28;20046;-64
2022/04/28 09:38:43;;;;;;;22.48;14.05;;;15.60;86.60;;;;;;5108208;28;20084;-64
2022/04/28 09:43:57;;;;;;;23.55;12.38;;;15.60;88.90;;;;;;5108022;28;19928;-64
2022/04/28 09:46:23;;;;;;;28.63;13.43;;;15.40;86.00;;;;;;5107490;28;20044;-65
2022/04/28 09:48:51;;;;;;;15.63;11.52;;;15.30;87.10;;;;;;5107659;28;20052;-64
2022/04/28 09:51:23;;;;;;;22.92;13.90;;;15.30;88.90;;;;;;5106560;28;20047;-64
2022/04/28 09:53:51;;;;;;;22.83;14.77;;;15.20;92.20;;;;;;5106119;28;20735;-64
2022/04/28 09:56:21;;;;;;;22.88;13.38;;;15.50;87.40;;;;;;5107454;28;20047;-64
2022/04/28 09:58:48;;;;;;;23.70;13.52;;;15.50;87.50;;;;;;5107271;28;20035;-63
2022/04/28 10:01:15;;;;;;;21.02;12.48;;;15.50;87.10;;;;;;5106349;28;20063;-65
2022/04/28 10:03:43;;;;;;;21.15;13.35;;;15.40;89.20;;;;;;5099736;28;20487;-65
2022/04/28 10:06:09;;;;;;;24.65;13.82;;;15.20;88.70;;;;;;5106988;28;20044;-65
2022/04/28 10:08:38;;;;;;;28.63;15.02;;;15.20;87.70;;;;;;5107351;28;20043;-64
2022/04/28 10:11:11;;;;;;;26.60;15.05;;;15.40;87.50;;;;;;5107545;28;20666;-63
2022/04/28 10:13:39;;;;;;;25.35;15.70;;;15.40;90.80;;;;;;5107051;28;20044;-63
2022/04/28 10:16:11;;;;;;;28.83;15.85;;;15.70;88.20;;;;;;5107277;28;20047;-65
2022/04/28 10:19:03;;;;;;;25.05;15.48;;;15.60;88.80;;;;;;5107017;28;20047;-64
2022/04/28 10:21:46;;;;;;;24.10;15.13;;;15.30;86.30;;;;;;5096432;28;20059;-64
2022/04/28 10:32:56;;;;;;;;;;;14.70;81.30;;;;;;5109120;27;20043;-64
2022/04/28 10:35:38;;;;;;;25.67;13.65;;;14.60;84.20;;;;;;5105067;28;20343;-66
2022/04/28 10:38:11;;;;;;;19.08;12.93;;;15.10;84.40;;;;;;5107033;28;20118;-65
2022/04/28 10:40:55;;;;;;;18.73;12.18;;;15.30;85.10;;;;;;5103535;28;20115;-65
2022/04/28 10:43:23;;;;;;;16.85;11.13;;;15.60;80.30;;;;;;5106888;28;20036;-64
2022/04/28 10:45:51;;;;;;;23.67;13.60;;;16.00;77.10;;;;;;5105793;28;20039;-63
2022/04/28 10:48:40;;;;;;;24.13;15.25;;;16.20;80.30;;;;;;5106772;28;20043;-65
2022/04/28 10:51:19;;;;;;;21.42;13.07;;;16.00;82.00;;;;;;5096072;28;20122;-64
2022/04/28 10:53:58;;;;;;;19.85;12.13;;;16.10;83.00;;;;;;5100616;28;20047;-65
2022/04/28 10:56:30;;;;;;;19.90;12.23;;;16.30;80.60;;;;;;5085534;28;20128;-65
2022/04/28 10:59:00;;;;;;;19.83;12.57;;;16.20;79.20;;;;;;5093594;28;20034;-65
2022/04/28 11:01:32;;;;;;;18.33;12.90;;;16.30;80.40;;;;;;5104333;28;20067;-64
2022/04/28 11:04:06;;;;;;;26.98;13.55;;;16.40;79.80;;;;;;5103129;28;20672;-64
2022/04/28 11:06:37;;;;;;;20.20;11.98;;;16.10;78.70;;;;;;5106295;28;20458;-65
2022/04/28 11:09:06;;;;;;;21.40;11.43;;;16.10;81.10;;;;;;5106164;28;20604;-64
2022/04/28 11:11:47;;;;;;;21.02;12.85;;;16.20;85.10;;;;;;5106440;28;20071;-64
2022/04/28 11:14:14;;;;;;;16.75;10.77;;;16.50;76.30;;;;;;5106083;28;20039;-66
2022/04/28 11:16:42;;;;;;;17.17;10.82;;;16.70;79.60;;;;;;5105978;28;20058;-64
2022/04/28 11:19:08;;;;;;;21.33;12.80;;;16.90;78.20;;;;;;5107176;28;20044;-65
2022/04/28 11:21:39;;;;;;;19.10;11.27;;;16.50;78.70;;;;;;5106744;28;20040;-64
2022/04/28 11:24:06;;;;;;;20.70;11.68;;;16.40;77.10;;;;;;5106964;28;20040;-64
2022/04/28 11:26:32;;;;;;;19.27;12.18;;;16.40;77.80;;;;;;5106620;28;20107;-66
2022/04/28 11:29:08;;;;;;;20.15;11.18;;;16.70;80.60;;;;;;5107026;28;20035;-65
2022/04/28 11:31:34;;;;;;;15.60;10.75;;;16.80;79.90;;;;;;5084372;28;20044;-66
2022/04/28 11:34:04;;;;;;;23.45;11.93;;;16.90;72.80;;;;;;5088645;28;20035;-66
2022/04/28 11:36:29;;;;;;;24.05;12.60;;;16.80;80.20;;;;;;5105988;28;20043;-66
2022/04/28 11:38:56;;;;;;;;;;;16.90;81.90;;;;;;5105478;28;20488;-65
2022/04/28 11:41:29;;;;;;;22.60;13.77;;;17.00;81.00;;;;;;5105389;28;19955;-65
2022/04/28 11:44:05;;;;;;;22.08;14.48;;;16.50;84.00;;;;;;5105728;28;20051;-66
2022/04/28 11:46:30;;;;;;;26.90;16.17;;;16.30;84.10;;;;;;5105967;28;20050;-62
2022/04/28 11:48:56;;;;;;;;;;;15.90;85.20;;;;;;5106793;28;20047;-65
2022/04/28 11:51:24;;;;;;;28.40;16.42;;;15.10;88.20;;;;;;5105683;28;20348;-64
2022/04/28 11:53:50;;;;;;;21.33;13.93;;;15.10;88.40;;;;;;5106833;28;20406;-64
2022/04/28 11:56:16;;;;;;;;;;;15.10;89.30;;;;;;5106549;28;20674;-64
2022/04/28 11:58:46;;;;;;;34.65;16.38;;;15.40;89.50;;;;;;5110651;28;19919;-66
2022/04/28 12:01:13;;;;;;;25.80;15.05;;;15.60;89.50;;;;;;5106479;28;20044;-65
2022/04/28 12:03:38;;;;;;;21.98;15.25;;;15.60;87.60;;;;;;5105164;28;20032;-66
2022/04/28 12:06:04;;;;;;;;;;;15.60;90.60;;;;;;5106645;28;20659;-63
2022/04/28 12:08:30;;;;;;;27.67;16.30;;;15.30;89.30;;;;;;5103744;28;19959;-66
2022/04/28 12:19:19;;;;;;;27.38;16.95;;;15.40;92.30;;;;;;5107501;28;20047;-65
2022/04/28 12:19:22;;;;;;;30.63;16.88;;;15.20;90.60;;;;;;5109910;28;20093;-66
2022/04/28 12:21:49;;;;;;;29.75;17.63;;;15.30;90.90;;;;;;5109043;28;20054;-65
2022/04/28 12:24:18;;;;;;;25.75;14.98;;;15.50;90.00;;;;;;5109169;28;20054;-65
2022/04/28 12:26:46;;;;;;;27.23;15.77;;;15.40;89.70;;;;;;5107994;28;20415;-66
2022/04/28 12:29:14;;;;;;;24.60;15.30;;;15.70;91.60;;;;;;5108545;28;20035;-65
2022/04/28 12:31:41;;;;;;;27.77;16.95;;;15.60;89.30;;;;;;5107945;28;20495;-66
2022/04/28 12:34:23;;;;;;;23.20;15.73;;;15.60;90.10;;;;;;5108462;28;20044;-66
2022/04/28 12:36:59;;;;;;;27.33;17.63;;;15.90;90.00;;;;;;5108877;28;20047;-66
2022/04/28 12:39:26;;;;;;;28.83;16.58;;;15.80;91.40;;;;;;5096163;28;20424;-65
2022/04/28 12:41:52;;;;;;;27.55;16.58;;;15.70;91.00;;;;;;5108494;28;20047;-66
2022/04/28 12:44:19;;;;;;;28.00;17.05;;;15.90;89.30;;;;;;5100039;28;20149;-66
2022/04/28 12:46:46;;;;;;;28.08;18.13;;;15.80;90.00;;;;;;5109718;28;20120;-65
2022/04/28 12:49:16;;;;;;;27.42;18.60;;;15.60;90.40;;;;;;5109389;28;20115;-66
2022/04/28 12:51:47;;;;;;;27.27;17.15;;;15.60;91.70;;;;;;5109336;28;20523;-66
2022/04/28 12:54:17;;;;;;;25.98;16.52;;;15.40;90.30;;;;;;5107891;28;20058;-67
2022/04/28 12:56:46;;;;;;;29.27;17.40;;;15.50;90.60;;;;;;5106979;28;20517;-67
2022/04/28 12:59:15;;;;;;;30.92;16.58;;;15.60;91.00;;;;;;5108168;28;20043;-66
2022/04/28 13:01:42;;;;;;;28.65;17.38;;;15.60;92.10;;;;;;5105504;28;20044;-67
2022/04/28 13:04:14;;;;;;;28.92;17.45;;;15.50;90.90;;;;;;5103874;28;20032;-67
2022/04/28 13:06:43;;;;;;;29.92;18.45;;;15.50;92.20;;;;;;5098530;28;20047;-65
2022/04/28 13:09:09;;;;;;;28.23;17.40;;;15.40;91.10;;;;;;5100514;28;20035;-64
2022/04/28 13:11:36;;;;;;;;;;;15.50;92.30;;;;;;5104869;28;20050;-64
2022/04/28 13:14:04;;;;;;;26.05;16.55;;;15.60;91.50;;;;;;5106438;28;19931;-67
2022/04/28 13:16:30;;;;;;;26.80;17.42;;;15.70;90.80;;;;;;5095227;28;20048;-63